createdAt,value
2023-04-26T00:01:03.994Z,-23366.53
2023-04-26T00:03:07.814Z,-23364.31
2023-04-26T00:05:10.935Z,-23362.72
2023-04-26T00:07:15.838Z,-23363.66
2023-04-26T00:09:19.542Z,-23365.25
2023-04-26T00:11:23.763Z,-23363.03
2023-04-26T00:13:26.520Z,-23359.53
2023-04-26T00:15:29.203Z,-23361.44
2023-04-26T00:17:31.902Z,-23362.25
2023-04-26T00:19:34.587Z,-23364.00
2023-04-26T00:21:37.979Z,-23364.63
2023-04-26T00:23:40.720Z,-23362.72
2023-04-26T00:25:43.481Z,-23361.28
2023-04-26T00:27:47.602Z,-23362.06
2023-04-26T00:29:50.231Z,-23362.06
2023-04-26T00:31:52.956Z,-23361.28
2023-04-26T00:33:55.709Z,-23360.50
2023-04-26T00:35:58.353Z,-23358.25
2023-04-26T00:38:01.045Z,-23357.47
2023-04-26T00:40:06.805Z,-23352.22
2023-04-26T00:42:09.470Z,-23351.91
2023-04-26T00:44:13.470Z,-23352.38
2023-04-26T00:46:16.246Z,-23354.44
2023-04-26T00:48:19.152Z,-23353.66
2023-04-26T00:50:21.998Z,-23352.84
2023-04-26T00:52:25.936Z,-23351.59
2023-04-26T00:54:29.666Z,-23355.09
2023-04-26T00:56:32.609Z,-23350.94
2023-04-26T00:58:35.210Z,-23350.31
2023-04-26T01:00:39.446Z,-23350.00
2023-04-26T01:02:42.557Z,-23346.81
2023-04-26T01:04:45.706Z,-23346.50
2023-04-26T01:06:48.816Z,-23347.13
2023-04-26T01:08:53.327Z,-23344.25
2023-04-26T01:10:59.557Z,-23347.44
2023-04-26T01:13:03.937Z,-23345.84
2023-04-26T01:15:07.638Z,-23346.81
2023-04-26T01:17:11.843Z,-23345.69
2023-04-26T01:19:15.153Z,-23345.84
2023-04-26T01:21:21.781Z,-23344.72
2023-04-26T01:23:26.086Z,-23347.28
2023-04-26T01:25:29.358Z,-23348.09
2023-04-26T01:27:32.094Z,-23351.59
2023-04-26T01:29:35.199Z,-23349.34
2023-04-26T01:31:37.984Z,-23348.72
2023-04-26T01:33:40.777Z,-23347.44
2023-04-26T01:35:43.549Z,-23348.41
2023-04-26T01:37:46.273Z,-23349.19
2023-04-26T01:39:50.353Z,-23347.75
2023-04-26T01:41:53.113Z,-23347.91
2023-04-26T01:43:55.953Z,-23346.81
2023-04-26T01:45:58.719Z,-23346.50
2023-04-26T01:48:01.416Z,-23344.59
2023-04-26T01:50:04.408Z,-23347.28
2023-04-26T01:52:07.101Z,-23347.44
2023-04-26T01:54:09.814Z,-23341.41
2023-04-26T01:56:13.819Z,-23336.94
2023-04-26T01:58:16.774Z,-23336.63
2023-04-26T02:00:20.412Z,-23333.91
2023-04-26T02:02:23.329Z,-23333.28
2023-04-26T02:04:27.189Z,-23333.59
2023-04-26T02:06:29.985Z,-23337.25
2023-04-26T02:08:32.845Z,-23333.44
2023-04-26T02:10:35.751Z,-23332.66
2023-04-26T02:12:40.372Z,-23333.91
2023-04-26T02:14:43.147Z,-23334.56
2023-04-26T02:16:45.855Z,-23333.44
2023-04-26T02:18:49.854Z,-23331.06
2023-04-26T02:20:52.830Z,-23331.22
2023-04-26T02:22:55.598Z,-23334.72
2023-04-26T02:24:58.533Z,-23330.75
2023-04-26T02:27:03.852Z,-23326.13
2023-04-26T02:29:08.192Z,-23324.53
2023-04-26T02:31:11.141Z,-23325.97
2023-04-26T02:33:13.856Z,-23325.81
2023-04-26T02:35:16.851Z,-23322.13
2023-04-26T02:37:19.744Z,-23326.28
2023-04-26T02:39:22.528Z,-23325.16
2023-04-26T02:41:25.253Z,-23321.34
2023-04-26T02:43:28.213Z,-23318.97
2023-04-26T02:45:32.375Z,-23315.13
2023-04-26T02:47:36.764Z,-23315.94
2023-04-26T02:49:39.546Z,-23312.91
2023-04-26T02:51:42.490Z,-23314.03
2023-04-26T02:53:45.849Z,-23314.97
2023-04-26T02:55:48.579Z,-23317.19
2023-04-26T02:57:51.373Z,-23315.28
2023-04-26T02:59:54.533Z,-23314.19
2023-04-26T03:01:58.609Z,-23314.03
2023-04-26T03:04:01.487Z,-23310.84
2023-04-26T03:06:04.431Z,-23312.44
2023-04-26T03:08:07.193Z,-23314.03
2023-04-26T03:10:10.697Z,-23313.22
2023-04-26T03:12:13.422Z,-23314.50
2023-04-26T03:14:16.130Z,-23315.59
2023-04-26T03:16:20.356Z,-23315.78
2023-04-26T03:18:24.389Z,-23316.56
2023-04-26T03:20:27.257Z,-23318.47
2023-04-26T03:22:30.072Z,-23317.69
2023-04-26T03:24:32.839Z,-23315.44
2023-04-26T03:26:35.553Z,-23314.66
2023-04-26T03:28:38.324Z,-23315.28
2023-04-26T03:30:41.049Z,-23315.94
2023-04-26T03:32:43.804Z,-23314.97
2023-04-26T03:34:48.714Z,-23316.88
2023-04-26T03:36:51.538Z,-23314.97
2023-04-26T03:38:54.372Z,-23317.19
2023-04-26T03:40:57.140Z,-23313.69
2023-04-26T03:42:59.868Z,-23314.66
2023-04-26T03:45:03.894Z,-23315.28
2023-04-26T03:47:06.664Z,-23317.84
2023-04-26T03:49:09.401Z,-23313.06
2023-04-26T03:51:13.461Z,-23310.19
2023-04-26T03:53:16.140Z,-23309.25
2023-04-26T03:55:19.034Z,-23309.25
2023-04-26T03:57:21.912Z,-23308.75
2023-04-26T03:59:24.606Z,-23303.81
2023-04-26T04:01:27.735Z,-23301.91
2023-04-26T04:03:31.061Z,-23300.63
2023-04-26T04:05:34.204Z,-23302.22
2023-04-26T04:07:38.331Z,-23301.75
2023-04-26T04:09:41.133Z,-23298.41
2023-04-26T04:11:45.679Z,-23297.13
2023-04-26T04:13:49.069Z,-23296.19
2023-04-26T04:15:52.388Z,-23296.34
2023-04-26T04:17:55.292Z,-23295.22
2023-04-26T04:19:58.199Z,-23296.97
2023-04-26T04:22:00.894Z,-23293.78
2023-04-26T04:24:05.615Z,-23295.22
2023-04-26T04:26:08.909Z,-23297.47
2023-04-26T04:28:12.026Z,-23299.03
2023-04-26T04:30:14.995Z,-23299.03
2023-04-26T04:32:17.696Z,-23299.22
2023-04-26T04:34:20.459Z,-23297.94
2023-04-26T04:36:23.223Z,-23297.47
2023-04-26T04:38:25.999Z,-23303.34
2023-04-26T04:40:30.412Z,-23306.22
2023-04-26T04:42:38.473Z,-23308.91
2023-04-26T04:44:42.127Z,-23310.50
2023-04-26T04:46:45.480Z,-23312.09
2023-04-26T04:48:48.596Z,-23312.25
2023-04-26T04:50:51.601Z,-23312.44
2023-04-26T04:52:54.277Z,-23312.75
2023-04-26T04:54:56.987Z,-23317.84
2023-04-26T04:57:01.164Z,-23314.03
2023-04-26T04:59:04.266Z,-23314.03
2023-04-26T05:01:07.163Z,-23318.16
2023-04-26T05:03:10.712Z,-23321.34
2023-04-26T05:05:13.808Z,-23321.50
2023-04-26T05:07:18.375Z,-23324.84
2023-04-26T05:09:21.520Z,-23329.31
2023-04-26T05:11:24.243Z,-23332.47
2023-04-26T05:13:28.291Z,-23338.22
2023-04-26T05:15:31.199Z,-23344.59
2023-04-26T05:17:34.042Z,-23352.84
2023-04-26T05:19:37.009Z,-23346.81
2023-04-26T05:21:39.812Z,-23343.00
2023-04-26T05:23:42.595Z,-23335.03
2023-04-26T05:25:45.502Z,-23338.69
2023-04-26T05:27:48.219Z,-23343.63
2023-04-26T05:29:52.254Z,-23352.53
2023-04-26T05:31:55.014Z,-23356.34
2023-04-26T05:33:57.797Z,-23350.63
2023-04-26T05:36:01.559Z,-23347.44
2023-04-26T05:38:04.895Z,-23346.50
2023-04-26T05:40:10.098Z,-23345.22
2023-04-26T05:42:12.747Z,-23350.31
2023-04-26T05:44:15.689Z,-23353.66
2023-04-26T05:46:19.811Z,-23354.44
2023-04-26T05:48:23.199Z,-23353.81
2023-04-26T05:50:25.923Z,-23352.22
2023-04-26T05:52:28.578Z,-23355.41
2023-04-26T05:54:31.317Z,-23350.16
2023-04-26T05:56:33.949Z,-23347.75
2023-04-26T05:58:36.973Z,-23355.72
2023-04-26T06:00:40.083Z,-23374.16
2023-04-26T06:02:44.292Z,-23370.81
2023-04-26T06:04:47.441Z,-23365.56
2023-04-26T06:06:50.249Z,-23369.72
2023-04-26T06:08:52.979Z,-23374.16
2023-04-26T06:10:55.681Z,-23369.88
2023-04-26T06:12:58.461Z,-23371.31
2023-04-26T06:15:01.133Z,-23370.34
2023-04-26T06:17:04.308Z,-23386.56
2023-04-26T06:19:08.761Z,-23375.13
2023-04-26T06:21:11.569Z,-23391.97
2023-04-26T06:23:14.322Z,-23410.72
2023-04-26T06:25:17.092Z,-23403.09
2023-04-26T06:27:19.770Z,-23404.19
2023-04-26T06:29:22.789Z,-23398.78
2023-04-26T06:31:25.565Z,-23387.53
2023-04-26T06:33:28.301Z,-23399.44
2023-04-26T06:35:32.436Z,-23395.78
2023-04-26T06:37:36.220Z,-23409.44
2023-04-26T06:39:39.282Z,-23399.28
2023-04-26T06:41:42.049Z,-23418.66
2023-04-26T06:43:44.698Z,-23415.47
2023-04-26T06:45:47.386Z,-23404.53
2023-04-26T06:47:52.578Z,-23406.28
2023-04-26T06:49:55.358Z,-23402.44
2023-04-26T06:51:59.442Z,-23438.19
2023-04-26T06:54:02.221Z,-23437.06
2023-04-26T06:56:05.306Z,-23402.94
2023-04-26T06:58:08.200Z,-23409.28
2023-04-26T07:00:12.872Z,-23427.84
2023-04-26T07:02:15.972Z,-23437.41
2023-04-26T07:04:20.785Z,-23458.03
2023-04-26T07:06:23.653Z,-23484.34
2023-04-26T07:08:27.775Z,-23491.00
2023-04-26T07:10:30.486Z,-23465.94
2023-04-26T07:12:33.138Z,-23478.16
2023-04-26T07:14:40.550Z,-23501.78
2023-04-26T07:16:46.254Z,-23505.25
2023-04-26T07:18:49.314Z,-23537.56
2023-04-26T07:20:52.311Z,-23546.09
2023-04-26T07:22:55.015Z,-23538.84
2023-04-26T07:24:59.072Z,-23576.16
2023-04-26T07:27:03.499Z,-23530.91
2023-04-26T07:29:06.296Z,-23545.16
2023-04-26T07:31:10.681Z,-23501.13
2023-04-26T07:33:13.795Z,-23508.09
2023-04-26T07:35:16.873Z,-23498.13
2023-04-26T07:37:19.639Z,-23430.56
2023-04-26T07:39:22.368Z,-23462.13
2023-04-26T07:41:26.651Z,-23438.66
2023-04-26T07:43:29.426Z,-23450.41
2023-04-26T07:45:33.664Z,-23447.88
2023-04-26T07:47:36.481Z,-23430.72
2023-04-26T07:49:39.225Z,-23440.72
2023-04-26T07:51:44.834Z,-23441.19
2023-04-26T07:53:47.507Z,-23448.66
2023-04-26T07:55:51.313Z,-23439.59
2023-04-26T07:57:55.545Z,-23449.13
2023-04-26T07:59:59.126Z,-23437.06
2023-04-26T08:02:01.881Z,-23450.09
2023-04-26T08:04:04.964Z,-23446.75
2023-04-26T08:06:08.878Z,-23520.47
2023-04-26T08:08:12.531Z,-23560.81
2023-04-26T08:10:15.297Z,-23588.50
2023-04-26T08:12:18.016Z,-23537.72
2023-04-26T08:14:22.178Z,-23533.75
2023-04-26T08:16:25.210Z,-23557.19
2023-04-26T08:18:27.902Z,-23577.72
2023-04-26T08:20:30.637Z,-23606.50
2023-04-26T08:22:33.370Z,-23591.00
2023-04-26T08:24:36.112Z,-23573.63
2023-04-26T08:26:38.836Z,-23547.69
2023-04-26T08:28:41.593Z,-23571.41
2023-04-26T08:30:45.774Z,-23535.81
2023-04-26T08:32:48.537Z,-23529.47
2023-04-26T08:34:51.273Z,-23561.94
2023-04-26T08:36:53.965Z,-23564.13
2023-04-26T08:38:57.679Z,-23570.47
2023-04-26T08:41:01.957Z,-23516.34
2023-04-26T08:43:04.765Z,-23529.34
2023-04-26T08:45:11.415Z,-23522.03
2023-04-26T08:47:19.929Z,-23522.19
2023-04-26T08:49:33.571Z,-23516.34
2023-04-26T08:51:38.387Z,-23547.06
2023-04-26T08:53:42.893Z,-23550.22
2023-04-26T08:55:49.964Z,-23513.19
2023-04-26T08:57:52.733Z,-23524.56
2023-04-26T08:59:58.528Z,-23520.78
2023-04-26T09:02:02.984Z,-23499.72
2023-04-26T09:04:08.353Z,-23492.25
2023-04-26T09:06:12.097Z,-23473.56
2023-04-26T09:08:18.323Z,-23489.72
2023-04-26T09:10:22.839Z,-23465.00
2023-04-26T09:12:26.278Z,-23479.59
2023-04-26T09:14:28.958Z,-23479.25
2023-04-26T09:16:37.655Z,-23484.81
2023-04-26T09:18:50.132Z,-23457.06
2023-04-26T09:21:08.286Z,-23448.50
2023-04-26T09:23:11.431Z,-23436.75
2023-04-26T09:25:14.914Z,-23449.44
2023-04-26T09:27:18.404Z,-23444.38
2023-04-26T09:29:21.439Z,-23461.50
2023-04-26T09:31:41.080Z,-23478.00
2023-04-26T09:33:58.980Z,-23468.31
2023-04-26T09:36:12.783Z,-23488.63
2023-04-26T09:38:17.569Z,-23482.44
2023-04-26T09:40:21.738Z,-23453.41
2023-04-26T09:42:24.433Z,-23470.06
2023-04-26T09:44:27.428Z,-23468.81
2023-04-26T09:46:30.250Z,-23455.63
2023-04-26T09:48:34.780Z,-23456.91
2023-04-26T09:50:37.548Z,-23461.19
2023-04-26T09:52:47.470Z,-23483.22
2023-04-26T09:54:51.720Z,-23462.13
2023-04-26T09:57:01.635Z,-23477.69
2023-04-26T09:59:05.761Z,-23476.72
2023-04-26T10:01:09.438Z,-23480.22
2023-04-26T10:03:14.115Z,-23485.44
2023-04-26T10:05:17.699Z,-23498.75
2023-04-26T10:07:23.485Z,-23495.75
2023-04-26T10:09:28.138Z,-23541.34
2023-04-26T10:11:31.271Z,-23516.97
2023-04-26T10:13:34.208Z,-23523.94
2023-04-26T10:15:37.162Z,-23523.63
2023-04-26T10:17:39.962Z,-23532.34
2023-04-26T10:19:45.029Z,-23588.81
2023-04-26T10:21:49.721Z,-23571.72
2023-04-26T10:23:52.813Z,-23534.38
2023-04-26T10:25:57.014Z,-23583.44
2023-04-26T10:27:59.735Z,-23544.84
2023-04-26T10:30:09.059Z,-23495.75
2023-04-26T10:32:16.562Z,-23505.72
2023-04-26T10:34:20.359Z,-23500.19
2023-04-26T10:36:23.134Z,-23520.78
2023-04-26T10:38:26.847Z,-23489.72
2023-04-26T10:40:32.827Z,-23485.59
2023-04-26T10:42:36.845Z,-23476.09
2023-04-26T10:44:41.999Z,-23466.56
2023-04-26T10:46:51.601Z,-23477.38
2023-04-26T10:48:54.642Z,-23477.53
2023-04-26T10:51:09.305Z,-23470.38
2023-04-26T10:53:12.345Z,-23474.97
2023-04-26T10:55:39.651Z,-23495.59
2023-04-26T10:57:51.410Z,-23485.59
2023-04-26T11:00:20.921Z,-23514.13
2023-04-26T11:02:50.391Z,-23505.25
2023-04-26T11:04:55.056Z,-23512.38
2023-04-26T11:06:58.465Z,-23522.03
2023-04-26T11:09:02.044Z,-23522.03
2023-04-26T11:11:10.114Z,-23501.47
2023-04-26T11:13:14.226Z,-23524.56
2023-04-26T11:15:17.289Z,-23529.47
2023-04-26T11:17:20.823Z,-23553.38
2023-04-26T11:19:24.138Z,-23541.03
2023-04-26T11:21:27.277Z,-23525.69
2023-04-26T11:23:31.506Z,-23541.19
2023-04-26T11:25:34.279Z,-23531.84
2023-04-26T11:27:37.207Z,-23516.81
2023-04-26T11:29:41.240Z,-23519.81
2023-04-26T11:31:43.942Z,-23511.13
2023-04-26T11:33:49.083Z,-23520.47
2023-04-26T11:35:53.498Z,-23516.34
2023-04-26T11:37:59.900Z,-23538.84
2023-04-26T11:40:02.722Z,-23536.13
2023-04-26T11:42:09.317Z,-23566.97
2023-04-26T11:44:12.816Z,-23558.75
2023-04-26T11:46:17.339Z,-23565.09
2023-04-26T11:48:20.414Z,-23528.38
2023-04-26T11:50:26.688Z,-23542.31
2023-04-26T11:52:29.724Z,-23546.09
2023-04-26T11:54:33.828Z,-23550.22
2023-04-26T11:56:36.473Z,-23545.78
2023-04-26T11:58:39.139Z,-23563.81
2023-04-26T12:01:01.725Z,-23560.03
2023-04-26T12:03:11.105Z,-23565.41
2023-04-26T12:05:22.834Z,-23539.47
2023-04-26T12:07:25.590Z,-23528.22
2023-04-26T12:09:29.748Z,-23564.47
2023-04-26T12:11:32.724Z,-23577.56
2023-04-26T12:13:35.792Z,-23602.69
2023-04-26T12:15:38.598Z,-23591.66
2023-04-26T12:17:41.399Z,-23595.44
2023-04-26T12:19:45.427Z,-23588.50
2023-04-26T12:21:50.457Z,-23623.88
2023-04-26T12:23:53.188Z,-23596.38
2023-04-26T12:25:59.729Z,-23596.06
2023-04-26T12:28:02.811Z,-23600.66
2023-04-26T12:30:07.250Z,-23570.00
2023-04-26T12:32:10.015Z,-23571.25
2023-04-26T12:34:12.836Z,-23542.00
2023-04-26T12:36:17.750Z,-23547.06
2023-04-26T12:38:20.866Z,-23585.97
2023-04-26T12:40:24.473Z,-23541.03
2023-04-26T12:42:27.269Z,-23579.31
2023-04-26T12:44:29.951Z,-23607.91
2023-04-26T12:46:32.705Z,-23621.34
2023-04-26T12:48:36.097Z,-23568.41
2023-04-26T12:50:38.753Z,-23548.31
2023-04-26T12:52:44.479Z,-23571.09
2023-04-26T12:54:48.962Z,-23566.19
2023-04-26T12:56:52.038Z,-23574.25
2023-04-26T12:58:55.113Z,-23587.84
2023-04-26T13:00:57.993Z,-23565.72
2023-04-26T13:03:00.805Z,-23567.94
2023-04-26T13:05:05.150Z,-23560.03
2023-04-26T13:07:08.529Z,-23551.16
2023-04-26T13:09:13.926Z,-23564.94
2023-04-26T13:11:16.872Z,-23561.59
2023-04-26T13:13:20.553Z,-23582.16
2023-04-26T13:15:26.841Z,-23565.88
2023-04-26T13:17:29.642Z,-23575.22
2023-04-26T13:19:32.307Z,-23583.91
2023-04-26T13:21:35.040Z,-23567.31
2023-04-26T13:23:37.684Z,-23568.41
2023-04-26T13:25:42.113Z,-23537.88
2023-04-26T13:27:44.813Z,-23554.19
2023-04-26T13:29:47.474Z,-23552.75
2023-04-26T13:31:50.407Z,-23545.47
2023-04-26T13:33:53.241Z,-23545.00
2023-04-26T13:35:56.031Z,-23548.63
2023-04-26T13:37:58.701Z,-23538.50
2023-04-26T13:40:01.865Z,-23548.63
2023-04-26T13:42:06.333Z,-23548.97
2023-04-26T13:44:09.060Z,-23560.66
2023-04-26T13:46:11.779Z,-23572.03
2023-04-26T13:48:14.799Z,-23557.81
2023-04-26T13:50:17.766Z,-23558.13
2023-04-26T13:52:20.579Z,-23571.56
2023-04-26T13:54:24.659Z,-23557.19
2023-04-26T13:56:27.482Z,-23551.47
2023-04-26T13:58:32.025Z,-23570.47
2023-04-26T14:00:34.855Z,-23571.41
2023-04-26T14:02:41.470Z,-23547.06
2023-04-26T14:04:44.538Z,-23563.66
2023-04-26T14:06:47.340Z,-23547.69
2023-04-26T14:08:50.092Z,-23560.97
2023-04-26T14:10:53.861Z,-23549.91
2023-04-26T14:12:58.486Z,-23579.78
2023-04-26T14:15:04.474Z,-23574.09
2023-04-26T14:17:07.304Z,-23575.38
2023-04-26T14:19:10.041Z,-23562.56
2023-04-26T14:21:12.862Z,-23559.56
2023-04-26T14:23:15.551Z,-23581.22
2023-04-26T14:25:18.930Z,-23577.72
2023-04-26T14:27:21.929Z,-23573.94
2023-04-26T14:29:24.685Z,-23554.03
2023-04-26T14:31:30.391Z,-23555.59
2023-04-26T14:33:33.242Z,-23552.13
2023-04-26T14:35:36.032Z,-23552.75
2023-04-26T14:37:39.208Z,-23555.59
2023-04-26T14:39:42.062Z,-23554.34
2023-04-26T14:41:44.789Z,-23579.78
2023-04-26T14:43:47.874Z,-23559.72
2023-04-26T14:45:50.942Z,-23590.53
2023-04-26T14:47:55.021Z,-23585.31
2023-04-26T14:49:58.176Z,-23570.63
2023-04-26T14:52:01.085Z,-23576.47
2023-04-26T14:54:03.930Z,-23567.16
2023-04-26T14:56:07.760Z,-23576.16
2023-04-26T14:58:10.546Z,-23562.88
2023-04-26T15:00:16.806Z,-23554.34
2023-04-26T15:02:19.746Z,-23578.38
2023-04-26T15:04:24.023Z,-23583.75
2023-04-26T15:06:27.372Z,-23586.75
2023-04-26T15:08:30.114Z,-23565.72
2023-04-26T15:10:33.044Z,-23553.06
2023-04-26T15:12:36.064Z,-23566.34
2023-04-26T15:14:38.793Z,-23572.03
2023-04-26T15:16:41.762Z,-23563.66
2023-04-26T15:18:44.558Z,-23554.81
2023-04-26T15:20:48.635Z,-23544.84
2023-04-26T15:22:51.535Z,-23545.16
2023-04-26T15:24:54.366Z,-23553.06
2023-04-26T15:26:57.120Z,-23553.22
2023-04-26T15:28:59.806Z,-23549.91
2023-04-26T15:31:03.273Z,-23544.06
2023-04-26T15:33:06.697Z,-23538.34
2023-04-26T15:35:13.851Z,-23538.50
2023-04-26T15:37:17.999Z,-23533.75
2023-04-26T15:39:20.796Z,-23530.59
2023-04-26T15:41:23.954Z,-23532.50
2023-04-26T15:43:26.802Z,-23522.69
2023-04-26T15:45:29.735Z,-23522.69
2023-04-26T15:47:32.469Z,-23525.22
2023-04-26T15:49:35.155Z,-23518.09
2023-04-26T15:51:37.821Z,-23524.72
2023-04-26T15:53:44.067Z,-23522.53
2023-04-26T15:55:47.087Z,-23521.56
2023-04-26T15:57:49.856Z,-23524.72
2023-04-26T15:59:52.611Z,-23516.97
2023-04-26T16:01:55.351Z,-23523.47
2023-04-26T16:03:58.581Z,-23523.63
2023-04-26T16:06:01.470Z,-23518.56
2023-04-26T16:08:05.748Z,-23516.81
2023-04-26T16:10:11.740Z,-23517.28
2023-04-26T16:12:14.456Z,-23518.56
2023-04-26T16:14:17.316Z,-23518.56
2023-04-26T16:16:20.604Z,-23518.25
2023-04-26T16:18:23.787Z,-23516.03
2023-04-26T16:20:26.749Z,-23520.63
2023-04-26T16:22:29.686Z,-23519.81
2023-04-26T16:24:32.386Z,-23517.47
2023-04-26T16:26:36.530Z,-23519.50
2023-04-26T16:28:39.269Z,-23520.16
2023-04-26T16:30:42.248Z,-23519.50
2023-04-26T16:32:45.240Z,-23519.50
2023-04-26T16:34:48.299Z,-23520.78
2023-04-26T16:36:51.026Z,-23525.22
2023-04-26T16:38:54.203Z,-23521.09
2023-04-26T16:40:58.637Z,-23517.47
2023-04-26T16:43:02.809Z,-23517.28
2023-04-26T16:45:06.264Z,-23516.97
2023-04-26T16:47:09.025Z,-23518.25
2023-04-26T16:49:11.970Z,-23513.81
2023-04-26T16:51:14.697Z,-23511.75
2023-04-26T16:53:18.020Z,-23511.59
2023-04-26T16:55:20.960Z,-23511.91
2023-04-26T16:57:23.775Z,-23513.19
2023-04-26T16:59:28.404Z,-23514.13
2023-04-26T17:01:31.508Z,-23512.22
2023-04-26T17:03:34.404Z,-23513.81
2023-04-26T17:05:41.018Z,-23516.34
2023-04-26T17:07:43.711Z,-23512.06
2023-04-26T17:09:46.614Z,-23506.22
2023-04-26T17:11:49.966Z,-23505.41
2023-04-26T17:13:52.845Z,-23506.84
2023-04-26T17:15:57.180Z,-23503.69
2023-04-26T17:18:00.053Z,-23509.84
2023-04-26T17:20:06.389Z,-23506.06
2023-04-26T17:22:09.083Z,-23506.06
2023-04-26T17:24:11.789Z,-23506.22
2023-04-26T17:26:14.469Z,-23509.38
2023-04-26T17:28:17.187Z,-23503.69
2023-04-26T17:30:20.292Z,-23502.72
2023-04-26T17:32:24.701Z,-23501.78
2023-04-26T17:34:27.680Z,-23496.88
2023-04-26T17:36:30.373Z,-23494.81
2023-04-26T17:38:33.041Z,-23493.53
2023-04-26T17:40:35.874Z,-23496.72
2023-04-26T17:42:38.511Z,-23491.94
2023-04-26T17:44:41.270Z,-23491.78
2023-04-26T17:46:43.933Z,-23491.00
2023-04-26T17:48:48.038Z,-23489.56
2023-04-26T17:50:52.790Z,-23491.00
2023-04-26T17:52:55.565Z,-23486.41
2023-04-26T17:54:58.296Z,-23488.47
2023-04-26T17:57:01.030Z,-23487.50
2023-04-26T17:59:03.915Z,-23487.50
2023-04-26T18:01:06.687Z,-23485.91
2023-04-26T18:03:09.669Z,-23486.72
2023-04-26T18:05:13.934Z,-23482.13
2023-04-26T18:07:16.705Z,-23481.16
2023-04-26T18:09:19.391Z,-23481.31
2023-04-26T18:11:22.537Z,-23480.06
2023-04-26T18:13:25.338Z,-23484.19
2023-04-26T18:15:28.105Z,-23478.94
2023-04-26T18:17:30.941Z,-23475.47
2023-04-26T18:19:33.688Z,-23472.59
2023-04-26T18:21:37.757Z,-23474.97
2023-04-26T18:23:41.547Z,-23470.38
2023-04-26T18:25:45.338Z,-23470.38
2023-04-26T18:27:48.052Z,-23468.81
2023-04-26T18:29:50.809Z,-23464.69
2023-04-26T18:31:54.028Z,-23466.09
2023-04-26T18:33:56.915Z,-23461.19
2023-04-26T18:35:59.678Z,-23460.56
2023-04-26T18:38:04.017Z,-23460.41
2023-04-26T18:40:08.216Z,-23460.25
2023-04-26T18:42:11.002Z,-23462.78
2023-04-26T18:44:14.345Z,-23461.19
2023-04-26T18:46:17.305Z,-23459.59
2023-04-26T18:48:20.140Z,-23457.38
2023-04-26T18:50:22.822Z,-23459.91
2023-04-26T18:52:25.556Z,-23462.13
2023-04-26T18:54:30.987Z,-23460.88
2023-04-26T18:56:33.748Z,-23463.88
2023-04-26T18:58:36.738Z,-23458.97
2023-04-26T19:00:39.447Z,-23457.53
2023-04-26T19:02:42.193Z,-23455.63
2023-04-26T19:04:46.896Z,-23454.06
2023-04-26T19:06:50.919Z,-23455.78
2023-04-26T19:08:53.673Z,-23455.47
2023-04-26T19:10:57.821Z,-23457.06
2023-04-26T19:13:00.660Z,-23457.69
2023-04-26T19:15:03.609Z,-23458.97
2023-04-26T19:17:06.472Z,-23458.81
2023-04-26T19:19:11.038Z,-23459.75
2023-04-26T19:21:13.799Z,-23460.25
2023-04-26T19:23:16.480Z,-23461.19
2023-04-26T19:25:22.981Z,-23459.91
2023-04-26T19:27:27.175Z,-23461.19
2023-04-26T19:29:30.135Z,-23460.88
2023-04-26T19:31:32.849Z,-23460.88
2023-04-26T19:33:37.016Z,-23465.00
2023-04-26T19:35:44.997Z,-23465.31
2023-04-26T19:37:47.808Z,-23462.78
2023-04-26T19:39:50.965Z,-23460.56
2023-04-26T19:41:56.256Z,-23460.25
2023-04-26T19:44:00.495Z,-23460.25
2023-04-26T19:46:03.297Z,-23460.41
2023-04-26T19:48:06.358Z,-23462.63
2023-04-26T19:50:10.051Z,-23461.19
2023-04-26T19:52:13.415Z,-23461.66
2023-04-26T19:54:18.075Z,-23460.25
2023-04-26T19:56:21.223Z,-23457.69
2023-04-26T19:58:23.874Z,-23459.59
2023-04-26T20:00:30.292Z,-23457.69
2023-04-26T20:02:33.336Z,-23458.97
2023-04-26T20:04:36.127Z,-23460.09
2023-04-26T20:06:38.808Z,-23461.19
2023-04-26T20:08:41.648Z,-23460.09
2023-04-26T20:10:44.396Z,-23458.50
2023-04-26T20:12:47.232Z,-23462.47
2023-04-26T20:14:50.515Z,-23462.31
2023-04-26T20:16:54.719Z,-23460.56
2023-04-26T20:18:57.746Z,-23459.59
2023-04-26T20:21:00.552Z,-23458.03
2023-04-26T20:23:03.588Z,-23459.59
2023-04-26T20:25:07.735Z,-23455.31
2023-04-26T20:27:10.595Z,-23458.66
2023-04-26T20:29:13.344Z,-23456.59
2023-04-26T20:31:16.134Z,-23454.84
2023-04-26T20:33:20.251Z,-23453.91
2023-04-26T20:35:22.975Z,-23450.72
2023-04-26T20:37:25.754Z,-23452.31
2023-04-26T20:39:29.449Z,-23449.59
2023-04-26T20:41:32.165Z,-23448.50
2023-04-26T20:43:35.270Z,-23448.97
2023-04-26T20:45:38.018Z,-23451.03
2023-04-26T20:47:40.906Z,-23450.88
2023-04-26T20:49:44.984Z,-23450.72
2023-04-26T20:51:47.766Z,-23450.72
2023-04-26T20:53:52.090Z,-23449.28
2023-04-26T20:55:58.201Z,-23444.53
2023-04-26T20:58:00.977Z,-23445.31
2023-04-26T21:00:04.032Z,-23441.84
2023-04-26T21:02:07.764Z,-23440.88
2023-04-26T21:04:10.681Z,-23440.41
2023-04-26T21:06:15.319Z,-23440.56
2023-04-26T21:08:18.186Z,-23442.31
2023-04-26T21:10:21.777Z,-23440.88
2023-04-26T21:12:24.734Z,-23439.47
2023-04-26T21:14:27.815Z,-23437.72
2023-04-26T21:16:30.710Z,-23438.34
2023-04-26T21:18:33.630Z,-23436.44
2023-04-26T21:20:36.414Z,-23434.06
2023-04-26T21:22:40.473Z,-23432.63
2023-04-26T21:24:43.211Z,-23431.69
2023-04-26T21:26:46.117Z,-23435.16
2023-04-26T21:28:48.764Z,-23435.16
2023-04-26T21:30:51.653Z,-23436.13
2023-04-26T21:32:54.397Z,-23436.28
2023-04-26T21:34:57.086Z,-23434.22
2023-04-26T21:36:59.750Z,-23435.16
2023-04-26T21:39:10.566Z,-23431.69
2023-04-26T21:41:13.637Z,-23428.81
2023-04-26T21:43:16.516Z,-23430.25
2023-04-26T21:45:19.325Z,-23428.50
2023-04-26T21:47:22.096Z,-23430.25
2023-04-26T21:49:24.876Z,-23435.81
2023-04-26T21:51:27.833Z,-23433.09
2023-04-26T21:53:30.569Z,-23433.75
2023-04-26T21:55:34.603Z,-23433.28
2023-04-26T21:57:37.530Z,-23432.63
2023-04-26T21:59:42.177Z,-23429.28
2023-04-26T22:01:45.027Z,-23426.13
2023-04-26T22:03:47.865Z,-23428.50
2023-04-26T22:05:50.615Z,-23429.13
2023-04-26T22:07:53.384Z,-23428.19
2023-04-26T22:09:56.310Z,-23428.34
2023-04-26T22:12:00.466Z,-23428.50
2023-04-26T22:14:03.194Z,-23425.78
2023-04-26T22:16:06.795Z,-23427.53
2023-04-26T22:18:09.474Z,-23428.97
2023-04-26T22:20:13.535Z,-23431.03
2023-04-26T22:22:16.391Z,-23431.34
2023-04-26T22:24:19.370Z,-23430.41
2023-04-26T22:26:22.322Z,-23432.00
2023-04-26T22:28:26.684Z,-23431.69
2023-04-26T22:30:29.419Z,-23430.09
2023-04-26T22:32:32.203Z,-23428.97
2023-04-26T22:34:34.977Z,-23430.56
2023-04-26T22:36:37.715Z,-23427.22
2023-04-26T22:38:40.800Z,-23426.59
2023-04-26T22:40:43.607Z,-23429.13
2023-04-26T22:42:46.509Z,-23429.13
2023-04-26T22:44:51.451Z,-23429.63
2023-04-26T22:46:55.276Z,-23430.72
2023-04-26T22:48:58.205Z,-23427.53
2023-04-26T22:51:00.975Z,-23428.66
2023-04-26T22:53:03.722Z,-23427.22
2023-04-26T22:55:07.390Z,-23426.75
2023-04-26T22:57:10.045Z,-23424.69
2023-04-26T22:59:13.267Z,-23427.06
2023-04-26T23:01:17.658Z,-23425.63
2023-04-26T23:03:20.508Z,-23426.59
2023-04-26T23:05:23.308Z,-23425.00
2023-04-26T23:07:26.140Z,-23426.28
2023-04-26T23:09:28.804Z,-23422.78
2023-04-26T23:11:31.695Z,-23422.16
2023-04-26T23:13:36.138Z,-23420.25
2023-04-26T23:15:38.806Z,-23418.66
2023-04-26T23:17:42.877Z,-23419.13
2023-04-26T23:19:46.154Z,-23419.94
2023-04-26T23:21:48.882Z,-23420.25
2023-04-26T23:23:51.615Z,-23418.03
2023-04-26T23:25:54.438Z,-23416.09
2023-04-26T23:27:57.228Z,-23415.63
2023-04-26T23:30:00.195Z,-23415.78
2023-04-26T23:32:03.026Z,-23417.38